sensor_id;sensor_type;location;lat;lon;timestamp;pressure;altitude;pressure_sealevel;temperature;humidity
67738;BME280;54534;43.612;1.572;2023-04-20T00:01:53;98583.09;;;18.60;46.18
67738;BME280;54534;43.612;1.572;2023-04-20T00:04:18;98589.22;;;18.61;46.35
67738;BME280;54534;43.612;1.572;2023-04-20T00:06:44;98582.25;;;18.60;46.59
67738;BME280;54534;43.612;1.572;2023-04-20T00:09:13;98577.75;;;18.60;46.55
67738;BME280;54534;43.612;1.572;2023-04-20T00:11:39;98574.25;;;18.60;46.31
67738;BME280;54534;43.612;1.572;2023-04-20T00:14:05;98576.06;;;18.59;46.41
67738;BME280;54534;43.612;1.572;2023-04-20T00:16:31;98571.72;;;18.58;46.30
67738;BME280;54534;43.612;1.572;2023-04-20T00:18:58;98561.22;;;18.56;46.31
67738;BME280;54534;43.612;1.572;2023-04-20T00:21:24;98566.38;;;18.58;46.44
67738;BME280;54534;43.612;1.572;2023-04-20T00:23:50;98561.22;;;18.56;46.45
67738;BME280;54534;43.612;1.572;2023-04-20T00:26:16;98557.84;;;18.54;46.56
67738;BME280;54534;43.612;1.572;2023-04-20T00:28:42;98566.53;;;18.56;46.58
67738;BME280;54534;43.612;1.572;2023-04-20T00:31:08;98559.53;;;18.55;46.56
67738;BME280;54534;43.612;1.572;2023-04-20T00:33:33;98551.69;;;18.54;46.49
67738;BME280;54534;43.612;1.572;2023-04-20T00:35:59;98548.06;;;18.55;46.35
67738;BME280;54534;43.612;1.572;2023-04-20T00:38:24;98545.50;;;18.53;46.64
67738;BME280;54534;43.612;1.572;2023-04-20T00:40:50;98542.84;;;18.53;46.43
67738;BME280;54534;43.612;1.572;2023-04-20T00:43:19;98542.84;;;18.53;46.34
67738;BME280;54534;43.612;1.572;2023-04-20T00:45:45;98544.66;;;18.53;46.51
67738;BME280;54534;43.612;1.572;2023-04-20T00:48:10;98535.72;;;18.54;46.36
67738;BME280;54534;43.612;1.572;2023-04-20T00:50:37;98531.34;;;18.53;46.15
67738;BME280;54534;43.612;1.572;2023-04-20T00:53:03;98531.50;;;18.51;46.42
67738;BME280;54534;43.612;1.572;2023-04-20T00:55:30;98521.72;;;18.52;46.20
67738;BME280;54534;43.612;1.572;2023-04-20T00:57:55;98518.19;;;18.51;46.39
67738;BME280;54534;43.612;1.572;2023-04-20T01:00:21;98518.34;;;18.50;46.31
67738;BME280;54534;43.612;1.572;2023-04-20T01:02:47;98512.88;;;18.51;46.43
67738;BME280;54534;43.612;1.572;2023-04-20T01:05:13;98513.84;;;18.50;46.57
67738;BME280;54534;43.612;1.572;2023-04-20T01:07:38;98512.19;;;18.49;46.51
67738;BME280;54534;43.612;1.572;2023-04-20T01:10:05;98503.34;;;18.49;46.41
67738;BME280;54534;43.612;1.572;2023-04-20T01:12:31;98494.50;;;18.48;46.64
67738;BME280;54534;43.612;1.572;2023-04-20T01:14:56;98498.03;;;18.49;46.62
67738;BME280;54534;43.612;1.572;2023-04-20T01:17:21;98498.03;;;18.49;46.19
67738;BME280;54534;43.612;1.572;2023-04-20T01:19:48;98497.19;;;18.48;46.48
67738;BME280;54534;43.612;1.572;2023-04-20T01:22:18;98491.84;;;18.48;46.40
67738;BME280;54534;43.612;1.572;2023-04-20T01:24:44;98492.00;;;18.47;46.57
67738;BME280;54534;43.612;1.572;2023-04-20T01:27:10;98493.66;;;18.48;46.10
67738;BME280;54534;43.612;1.572;2023-04-20T01:29:36;98490.19;;;18.47;46.31
67738;BME280;54534;43.612;1.572;2023-04-20T01:32:02;98491.16;;;18.46;46.28
67738;BME280;54534;43.612;1.572;2023-04-20T01:34:28;98495.63;;;18.45;46.03
67738;BME280;54534;43.612;1.572;2023-04-20T01:36:53;98497.34;;;18.47;46.38
67738;BME280;54534;43.612;1.572;2023-04-20T01:39:19;98497.44;;;18.45;46.01
67738;BME280;54534;43.612;1.572;2023-04-20T01:41:44;98493.97;;;18.44;46.26
67738;BME280;54534;43.612;1.572;2023-04-20T01:44:10;98494.78;;;18.45;46.18
67738;BME280;54534;43.612;1.572;2023-04-20T01:46:37;98492.13;;;18.45;46.49
67738;BME280;54534;43.612;1.572;2023-04-20T01:49:04;98499.31;;;18.44;46.51
67738;BME280;54534;43.612;1.572;2023-04-20T01:51:30;98494.09;;;18.43;45.81
67738;BME280;54534;43.612;1.572;2023-04-20T01:53:57;98481.63;;;18.43;46.40
67738;BME280;54534;43.612;1.572;2023-04-20T01:56:23;98491.44;;;18.43;46.22
67738;BME280;54534;43.612;1.572;2023-04-20T01:58:48;98479.94;;;18.42;46.26
67738;BME280;54534;43.612;1.572;2023-04-20T02:01:14;98479.94;;;18.42;46.28
67738;BME280;54534;43.612;1.572;2023-04-20T02:03:39;98486.13;;;18.43;46.32
67738;BME280;54534;43.612;1.572;2023-04-20T02:06:05;98485.25;;;18.42;46.07
67738;BME280;54534;43.612;1.572;2023-04-20T02:08:31;98472.13;;;18.41;46.00
67738;BME280;54534;43.612;1.572;2023-04-20T02:10:57;98478.28;;;18.41;46.08
67738;BME280;54534;43.612;1.572;2023-04-20T02:13:22;98472.13;;;18.41;46.06
67738;BME280;54534;43.612;1.572;2023-04-20T02:15:48;98473.06;;;18.40;46.27
67738;BME280;54534;43.612;1.572;2023-04-20T02:18:13;98474.78;;;18.41;46.20
67738;BME280;54534;43.612;1.572;2023-04-20T02:20:41;98463.44;;;18.39;46.01
67738;BME280;54534;43.612;1.572;2023-04-20T02:23:07;98472.25;;;18.39;46.29
67738;BME280;54534;43.612;1.572;2023-04-20T02:25:33;98465.25;;;18.38;46.10
67738;BME280;54534;43.612;1.572;2023-04-20T02:27:58;98470.41;;;18.40;45.78
67738;BME280;54534;43.612;1.572;2023-04-20T02:30:24;98461.75;;;18.38;45.89
67738;BME280;54534;43.612;1.572;2023-04-20T02:32:49;98467.91;;;18.38;46.18
67738;BME280;54534;43.612;1.572;2023-04-20T02:35:15;98467.06;;;18.38;45.83
67738;BME280;54534;43.612;1.572;2023-04-20T02:37:42;98460.91;;;18.37;45.75
67738;BME280;54534;43.612;1.572;2023-04-20T02:40:07;98464.41;;;18.38;46.17
67738;BME280;54534;43.612;1.572;2023-04-20T02:42:33;98459.06;;;18.38;45.86
67738;BME280;54534;43.612;1.572;2023-04-20T02:44:59;98460.06;;;18.37;45.93
67738;BME280;54534;43.612;1.572;2023-04-20T02:47:24;98460.06;;;18.37;45.65
67738;BME280;54534;43.612;1.572;2023-04-20T02:49:50;98449.56;;;18.35;45.93
67738;BME280;54534;43.612;1.572;2023-04-20T02:52:15;98453.91;;;18.36;45.79
67738;BME280;54534;43.612;1.572;2023-04-20T02:54:41;98456.56;;;18.36;45.59
67738;BME280;54534;43.612;1.572;2023-04-20T02:57:06;98446.91;;;18.35;46.03
67738;BME280;54534;43.612;1.572;2023-04-20T02:59:31;98451.38;;;18.34;45.97
67738;BME280;54534;43.612;1.572;2023-04-20T03:01:57;98444.22;;;18.35;45.89
67738;BME280;54534;43.612;1.572;2023-04-20T03:04:22;98446.03;;;18.34;45.61
67738;BME280;54534;43.612;1.572;2023-04-20T03:06:51;98441.56;;;18.35;45.83
67738;BME280;54534;43.612;1.572;2023-04-20T03:09:17;98437.22;;;18.34;45.61
67738;BME280;54534;43.612;1.572;2023-04-20T03:11:44;98437.38;;;18.32;45.61
67738;BME280;54534;43.612;1.572;2023-04-20T03:14:09;98432.91;;;18.33;45.75
67738;BME280;54534;43.612;1.572;2023-04-20T03:16:35;98433.75;;;18.33;45.80
67738;BME280;54534;43.612;1.572;2023-04-20T03:19:00;98430.22;;;18.33;45.60
67738;BME280;54534;43.612;1.572;2023-04-20T03:21:26;98429.38;;;18.32;45.74
67738;BME280;54534;43.612;1.572;2023-04-20T03:23:51;98431.19;;;18.32;46.03
67738;BME280;54534;43.612;1.572;2023-04-20T03:26:16;98427.69;;;18.31;46.06
67738;BME280;54534;43.612;1.572;2023-04-20T03:28:42;98427.69;;;18.31;46.13
67738;BME280;54534;43.612;1.572;2023-04-20T03:31:08;98421.56;;;18.31;45.92
67738;BME280;54534;43.612;1.572;2023-04-20T03:33:33;98423.38;;;18.30;46.12
67738;BME280;54534;43.612;1.572;2023-04-20T03:35:59;98431.34;;;18.30;45.54
67738;BME280;54534;43.612;1.572;2023-04-20T03:38:24;98427.00;;;18.29;45.61
67738;BME280;54534;43.612;1.572;2023-04-20T03:40:49;98426.31;;;18.27;45.95
67738;BME280;54534;43.612;1.572;2023-04-20T03:43:15;98435.00;;;18.29;45.83
67738;BME280;54534;43.612;1.572;2023-04-20T03:45:40;98440.31;;;18.29;45.77
67738;BME280;54534;43.612;1.572;2023-04-20T03:48:06;98437.81;;;18.28;45.65
67738;BME280;54534;43.612;1.572;2023-04-20T03:50:31;98440.47;;;18.28;45.76
67738;BME280;54534;43.612;1.572;2023-04-20T03:52:56;98433.31;;;18.28;45.46
67738;BME280;54534;43.612;1.572;2023-04-20T03:55:22;98440.47;;;18.28;45.98
67738;BME280;54534;43.612;1.572;2023-04-20T03:57:47;98431.63;;;18.27;45.57
67738;BME280;54534;43.612;1.572;2023-04-20T04:00:13;98434.28;;;18.27;45.85
67738;BME280;54534;43.612;1.572;2023-04-20T04:02:38;98439.63;;;18.27;45.43
67738;BME280;54534;43.612;1.572;2023-04-20T04:05:04;98431.63;;;18.27;45.55
67738;BME280;54534;43.612;1.572;2023-04-20T04:07:30;98431.63;;;18.27;45.75
67738;BME280;54534;43.612;1.572;2023-04-20T04:09:55;98432.59;;;18.26;45.79
67738;BME280;54534;43.612;1.572;2023-04-20T04:12:20;98429.13;;;18.26;45.75
67738;BME280;54534;43.612;1.572;2023-04-20T04:14:46;98429.13;;;18.26;45.75
67738;BME280;54534;43.612;1.572;2023-04-20T04:17:13;98432.59;;;18.26;45.44
67738;BME280;54534;43.612;1.572;2023-04-20T04:19:39;98437.09;;;18.26;45.52
67738;BME280;54534;43.612;1.572;2023-04-20T04:22:04;98440.75;;;18.25;45.64
67738;BME280;54534;43.612;1.572;2023-04-20T04:24:31;98435.41;;;18.25;45.78
67738;BME280;54534;43.612;1.572;2023-04-20T04:26:57;98435.41;;;18.25;45.73
67738;BME280;54534;43.612;1.572;2023-04-20T04:29:23;98431.91;;;18.24;45.55
67738;BME280;54534;43.612;1.572;2023-04-20T04:31:51;98431.91;;;18.24;45.57
67738;BME280;54534;43.612;1.572;2023-04-20T04:34:16;98433.72;;;18.23;45.39
67738;BME280;54534;43.612;1.572;2023-04-20T04:36:45;98427.59;;;18.23;45.83
67738;BME280;54534;43.612;1.572;2023-04-20T04:39:10;98429.25;;;18.24;45.48
67738;BME280;54534;43.612;1.572;2023-04-20T04:41:36;98425.91;;;18.22;45.72
67738;BME280;54534;43.612;1.572;2023-04-20T04:44:02;98426.75;;;18.22;45.73
67738;BME280;54534;43.612;1.572;2023-04-20T04:46:30;98427.72;;;18.21;45.54
67738;BME280;54534;43.612;1.572;2023-04-20T04:48:56;98437.50;;;18.21;45.80
67738;BME280;54534;43.612;1.572;2023-04-20T04:51:25;98439.19;;;18.22;45.90
67738;BME280;54534;43.612;1.572;2023-04-20T04:53:50;98441.00;;;18.21;45.73
67738;BME280;54534;43.612;1.572;2023-04-20T04:56:15;98434.84;;;18.21;45.80
67738;BME280;54534;43.612;1.572;2023-04-20T04:58:43;98438.47;;;18.20;45.72
67738;BME280;54534;43.612;1.572;2023-04-20T05:01:08;98437.63;;;18.19;45.74
67738;BME280;54534;43.612;1.572;2023-04-20T05:03:34;98440.16;;;18.21;45.50
67738;BME280;54534;43.612;1.572;2023-04-20T05:05:59;98434.13;;;18.19;45.63
67738;BME280;54534;43.612;1.572;2023-04-20T05:08:24;98439.44;;;18.19;45.50
67738;BME280;54534;43.612;1.572;2023-04-20T05:10:50;98439.44;;;18.19;45.34
67738;BME280;54534;43.612;1.572;2023-04-20T05:13:15;98439.44;;;18.19;45.85
67738;BME280;54534;43.612;1.572;2023-04-20T05:15:40;98433.28;;;18.18;45.67
67738;BME280;54534;43.612;1.572;2023-04-20T05:18:06;98425.28;;;18.18;45.42
67738;BME280;54534;43.612;1.572;2023-04-20T05:20:31;98434.13;;;18.19;45.61
67738;BME280;54534;43.612;1.572;2023-04-20T05:22:56;98438.47;;;18.20;45.78
67738;BME280;54534;43.612;1.572;2023-04-20T05:25:22;98442.09;;;18.19;46.03
67738;BME280;54534;43.612;1.572;2023-04-20T05:27:47;98443.78;;;18.20;45.96
67738;BME280;54534;43.612;1.572;2023-04-20T05:30:13;98446.47;;;18.20;45.68
67738;BME280;54534;43.612;1.572;2023-04-20T05:32:38;98449.13;;;18.20;45.68
67738;BME280;54534;43.612;1.572;2023-04-20T05:35:04;98446.47;;;18.20;45.56
67738;BME280;54534;43.612;1.572;2023-04-20T05:37:30;98447.41;;;18.19;45.90
67738;BME280;54534;43.612;1.572;2023-04-20T05:39:56;98448.28;;;18.19;46.12
67738;BME280;54534;43.612;1.572;2023-04-20T05:42:21;98446.56;;;18.18;45.82
67738;BME280;54534;43.612;1.572;2023-04-20T05:44:46;98447.41;;;18.19;46.13
67738;BME280;54534;43.612;1.572;2023-04-20T05:47:12;98443.09;;;18.18;46.20
67738;BME280;54534;43.612;1.572;2023-04-20T05:49:37;98450.09;;;18.19;45.74
67738;BME280;54534;43.612;1.572;2023-04-20T05:52:03;98451.09;;;18.18;46.44
67738;BME280;54534;43.612;1.572;2023-04-20T05:54:29;98445.59;;;18.19;46.21
67738;BME280;54534;43.612;1.572;2023-04-20T05:56:55;98442.94;;;18.19;46.35
67738;BME280;54534;43.612;1.572;2023-04-20T05:59:22;98451.91;;;18.18;46.37
67738;BME280;54534;43.612;1.572;2023-04-20T06:01:48;98448.28;;;18.19;46.45
67738;BME280;54534;43.612;1.572;2023-04-20T06:04:13;98451.09;;;18.18;46.25
67738;BME280;54534;43.612;1.572;2023-04-20T06:06:39;98445.59;;;18.19;46.03
67738;BME280;54534;43.612;1.572;2023-04-20T06:09:04;98452.66;;;18.20;46.28
67738;BME280;54534;43.612;1.572;2023-04-20T06:11:30;98452.66;;;18.20;46.41
67738;BME280;54534;43.612;1.572;2023-04-20T06:13:56;98452.50;;;18.22;46.29
67738;BME280;54534;43.612;1.572;2023-04-20T06:16:22;98445.50;;;18.21;46.54
67738;BME280;54534;43.612;1.572;2023-04-20T06:18:47;98451.66;;;18.21;46.20
67738;BME280;54534;43.612;1.572;2023-04-20T06:21:13;98448.16;;;18.21;46.33
67738;BME280;54534;43.612;1.572;2023-04-20T06:23:40;98449.84;;;18.22;46.09
67738;BME280;54534;43.612;1.572;2023-04-20T06:26:06;98446.34;;;18.21;46.22
67738;BME280;54534;43.612;1.572;2023-04-20T06:28:33;98449.84;;;18.22;45.99
67738;BME280;54534;43.612;1.572;2023-04-20T06:30:59;98446.34;;;18.21;46.09
67738;BME280;54534;43.612;1.572;2023-04-20T06:33:24;98441.00;;;18.21;46.36
67738;BME280;54534;43.612;1.572;2023-04-20T06:35:50;98445.38;;;18.22;46.46
67738;BME280;54534;43.612;1.572;2023-04-20T06:38:15;98441.84;;;18.22;46.55
67738;BME280;54534;43.612;1.572;2023-04-20T06:40:41;98447.19;;;18.22;45.99
67738;BME280;54534;43.612;1.572;2023-04-20T06:43:06;98449.84;;;18.22;46.35
67738;BME280;54534;43.612;1.572;2023-04-20T06:45:31;98449.84;;;18.22;45.90
67738;BME280;54534;43.612;1.572;2023-04-20T06:47:57;98449.84;;;18.22;45.94
67738;BME280;54534;43.612;1.572;2023-04-20T06:50:22;98448.88;;;18.23;46.45
67738;BME280;54534;43.612;1.572;2023-04-20T06:52:48;98449.84;;;18.22;46.47
67738;BME280;54534;43.612;1.572;2023-04-20T06:55:13;98448.88;;;18.23;46.27
67738;BME280;54534;43.612;1.572;2023-04-20T06:57:38;98448.03;;;18.22;46.47
67738;BME280;54534;43.612;1.572;2023-04-20T07:00:07;98449.84;;;18.22;46.38
67738;BME280;54534;43.612;1.572;2023-04-20T07:02:47;98446.06;;;18.25;46.49
67738;BME280;54534;43.612;1.572;2023-04-20T07:05:14;98448.88;;;18.23;46.50
67738;BME280;54534;43.612;1.572;2023-04-20T07:07:40;98443.56;;;18.23;46.20
67738;BME280;54534;43.612;1.572;2023-04-20T07:10:07;98439.88;;;18.24;46.07
67738;BME280;54534;43.612;1.572;2023-04-20T07:12:34;98434.56;;;18.24;46.56
67738;BME280;54534;43.612;1.572;2023-04-20T07:15:02;98435.41;;;18.25;46.29
67738;BME280;54534;43.612;1.572;2023-04-20T07:17:28;98434.56;;;18.24;46.13
67738;BME280;54534;43.612;1.572;2023-04-20T07:19:53;98434.56;;;18.24;46.23
67738;BME280;54534;43.612;1.572;2023-04-20T07:22:20;98429.41;;;18.22;46.55
67738;BME280;54534;43.612;1.572;2023-04-20T07:24:46;98427.44;;;18.25;46.32
67738;BME280;54534;43.612;1.572;2023-04-20T07:27:11;98437.22;;;18.24;46.13
67738;BME280;54534;43.612;1.572;2023-04-20T07:29:37;98433.59;;;18.25;46.38
67738;BME280;54534;43.612;1.572;2023-04-20T07:32:02;98425.63;;;18.25;46.09
67738;BME280;54534;43.612;1.572;2023-04-20T07:34:28;98420.28;;;18.25;46.09
67738;BME280;54534;43.612;1.572;2023-04-20T07:36:53;98420.28;;;18.25;46.00
67738;BME280;54534;43.612;1.572;2023-04-20T07:39:18;98422.97;;;18.25;46.34
67738;BME280;54534;43.612;1.572;2023-04-20T07:41:44;98419.28;;;18.26;46.15
67738;BME280;54534;43.612;1.572;2023-04-20T07:44:11;98415.81;;;18.26;45.87
67738;BME280;54534;43.612;1.572;2023-04-20T07:46:37;98426.31;;;18.27;46.44
67738;BME280;54534;43.612;1.572;2023-04-20T07:49:02;98412.16;;;18.27;46.52
67738;BME280;54534;43.612;1.572;2023-04-20T07:51:28;98426.31;;;18.27;46.57
67738;BME280;54534;43.612;1.572;2023-04-20T07:53:54;98432.31;;;18.29;46.54
67738;BME280;54534;43.612;1.572;2023-04-20T07:56:21;98414.69;;;18.28;46.49
67738;BME280;54534;43.612;1.572;2023-04-20T07:58:46;98420.84;;;18.29;46.36
67738;BME280;54534;43.612;1.572;2023-04-20T08:01:11;98420.84;;;18.29;46.65
67738;BME280;54534;43.612;1.572;2023-04-20T08:03:37;98427.00;;;18.29;46.49
67738;BME280;54534;43.612;1.572;2023-04-20T08:06:02;98424.34;;;18.29;46.08
67738;BME280;54534;43.612;1.572;2023-04-20T08:08:28;98423.38;;;18.30;46.29
67738;BME280;54534;43.612;1.572;2023-04-20T08:10:56;98417.34;;;18.28;46.54
67738;BME280;54534;43.612;1.572;2023-04-20T08:13:22;98423.38;;;18.30;46.12
67738;BME280;54534;43.612;1.572;2023-04-20T08:15:47;98419.88;;;18.30;46.30
67738;BME280;54534;43.612;1.572;2023-04-20T08:18:12;98425.19;;;18.30;46.35
67738;BME280;54534;43.612;1.572;2023-04-20T08:20:38;98418.06;;;18.30;46.01
67738;BME280;54534;43.612;1.572;2023-04-20T08:23:03;98421.56;;;18.31;46.22
67738;BME280;54534;43.612;1.572;2023-04-20T08:25:28;98427.69;;;18.31;46.41
67738;BME280;54534;43.612;1.572;2023-04-20T08:27:56;98421.41;;;18.32;46.46
67738;BME280;54534;43.612;1.572;2023-04-20T08:30:21;98423.22;;;18.32;46.70
67738;BME280;54534;43.612;1.572;2023-04-20T08:32:47;98425.03;;;18.31;46.19
67738;BME280;54534;43.612;1.572;2023-04-20T08:35:12;98418.75;;;18.32;46.42
67738;BME280;54534;43.612;1.572;2023-04-20T08:37:38;98414.38;;;18.31;46.57
67738;BME280;54534;43.612;1.572;2023-04-20T08:40:03;98411.59;;;18.33;46.58
67738;BME280;54534;43.612;1.572;2023-04-20T08:42:29;98418.75;;;18.32;46.39
67738;BME280;54534;43.612;1.572;2023-04-20T08:44:56;98410.75;;;18.32;46.70
67738;BME280;54534;43.612;1.572;2023-04-20T08:47:22;98416.09;;;18.32;46.44
67738;BME280;54534;43.612;1.572;2023-04-20T08:49:52;98409.78;;;18.33;46.25
67738;BME280;54534;43.612;1.572;2023-04-20T08:52:17;98413.25;;;18.34;46.16
67738;BME280;54534;43.612;1.572;2023-04-20T08:54:43;98412.44;;;18.33;46.48
67738;BME280;54534;43.612;1.572;2023-04-20T08:57:08;98416.78;;;18.34;46.39
67738;BME280;54534;43.612;1.572;2023-04-20T08:59:35;98414.13;;;18.34;46.47
67738;BME280;54534;43.612;1.572;2023-04-20T09:02:11;98414.97;;;18.35;46.22
67738;BME280;54534;43.612;1.572;2023-04-20T09:04:38;98414.13;;;18.34;46.50
67738;BME280;54534;43.612;1.572;2023-04-20T09:07:04;98414.13;;;18.34;46.28
67738;BME280;54534;43.612;1.572;2023-04-20T09:09:30;98409.63;;;18.35;46.47
67738;BME280;54534;43.612;1.572;2023-04-20T09:12:06;98404.31;;;18.35;46.11
67738;BME280;54534;43.612;1.572;2023-04-20T09:14:45;98405.16;;;18.36;46.15
67738;BME280;54534;43.612;1.572;2023-04-20T09:17:11;98401.81;;;18.33;46.49
67738;BME280;54534;43.612;1.572;2023-04-20T09:19:39;98403.47;;;18.34;46.30
67738;BME280;54534;43.612;1.572;2023-04-20T09:22:05;98404.31;;;18.35;46.23
67738;BME280;54534;43.612;1.572;2023-04-20T09:24:35;98413.16;;;18.36;46.54
67738;BME280;54534;43.612;1.572;2023-04-20T09:27:05;98400.13;;;18.32;46.44
67738;BME280;54534;43.612;1.572;2023-04-20T09:29:38;98400.69;;;18.36;46.22
67738;BME280;54534;43.612;1.572;2023-04-20T09:32:04;98406.81;;;18.37;46.34
67738;BME280;54534;43.612;1.572;2023-04-20T09:34:29;98407.66;;;18.37;46.63
67738;BME280;54534;43.612;1.572;2023-04-20T09:36:55;98405.84;;;18.38;46.03
67738;BME280;54534;43.612;1.572;2023-04-20T09:39:28;98397.03;;;18.37;46.29
67738;BME280;54534;43.612;1.572;2023-04-20T09:42:03;98404.88;;;18.39;46.36
67738;BME280;54534;43.612;1.572;2023-04-20T09:44:30;98406.69;;;18.38;46.37
67738;BME280;54534;43.612;1.572;2023-04-20T09:46:57;98404.88;;;18.39;46.58
67738;BME280;54534;43.612;1.572;2023-04-20T09:49:22;98395.91;;;18.40;46.39
67738;BME280;54534;43.612;1.572;2023-04-20T09:51:49;98395.09;;;18.39;46.45
67738;BME280;54534;43.612;1.572;2023-04-20T09:54:15;98393.22;;;18.40;46.49
67738;BME280;54534;43.612;1.572;2023-04-20T09:56:40;98395.91;;;18.40;46.24
67738;BME280;54534;43.612;1.572;2023-04-20T09:59:06;98395.09;;;18.39;46.03
67738;BME280;54534;43.612;1.572;2023-04-20T10:01:33;98389.75;;;18.39;46.14
67738;BME280;54534;43.612;1.572;2023-04-20T10:04:01;98385.25;;;18.40;46.22
67738;BME280;54534;43.612;1.572;2023-04-20T10:06:29;98386.09;;;18.40;46.44
67738;BME280;54534;43.612;1.572;2023-04-20T10:08:56;98382.47;;;18.41;46.14
67738;BME280;54534;43.612;1.572;2023-04-20T10:14:13;98378.00;;;18.42;46.31
67738;BME280;54534;43.612;1.572;2023-04-20T10:16:39;98370.00;;;18.42;45.97
67738;BME280;54534;43.612;1.572;2023-04-20T10:19:05;98370.00;;;18.42;46.25
67738;BME280;54534;43.612;1.572;2023-04-20T10:21:31;98365.66;;;18.41;46.38
67738;BME280;54534;43.612;1.572;2023-04-20T10:23:58;98354.84;;;18.42;45.96
67738;BME280;54534;43.612;1.572;2023-04-20T10:26:45;98355.69;;;18.43;46.25
67738;BME280;54534;43.612;1.572;2023-04-20T10:29:25;98354.03;;;18.42;46.14
67738;BME280;54534;43.612;1.572;2023-04-20T10:31:52;98350.38;;;18.43;45.97
67738;BME280;54534;43.612;1.572;2023-04-20T10:34:31;98353.03;;;18.43;45.99
67738;BME280;54534;43.612;1.572;2023-04-20T10:37:11;98358.34;;;18.43;46.41
67738;BME280;54534;43.612;1.572;2023-04-20T10:39:46;98348.56;;;18.43;46.11
67738;BME280;54534;43.612;1.572;2023-04-20T10:42:12;98348.56;;;18.43;46.36
67738;BME280;54534;43.612;1.572;2023-04-20T10:44:50;98352.06;;;18.44;46.13
67738;BME280;54534;43.612;1.572;2023-04-20T10:47:24;98339.59;;;18.44;46.12
67738;BME280;54534;43.612;1.572;2023-04-20T10:49:50;98349.25;;;18.45;46.16
67738;BME280;54534;43.612;1.572;2023-04-20T10:52:15;98342.94;;;18.47;46.60
67738;BME280;54534;43.612;1.572;2023-04-20T10:54:41;98338.31;;;18.49;46.84
67738;BME280;54534;43.612;1.572;2023-04-20T10:57:06;98330.31;;;18.49;46.68
67738;BME280;54534;43.612;1.572;2023-04-20T10:59:32;98335.38;;;18.52;46.90
67738;BME280;54534;43.612;1.572;2023-04-20T11:02:06;98334.25;;;18.54;46.62
67738;BME280;54534;43.612;1.572;2023-04-20T11:04:33;98328.75;;;18.56;47.09
67738;BME280;54534;43.612;1.572;2023-04-20T11:07:06;98327.63;;;18.59;46.82
67738;BME280;54534;43.612;1.572;2023-04-20T11:09:33;98316.13;;;18.58;47.01
67738;BME280;54534;43.612;1.572;2023-04-20T11:17:16;98317.53;;;18.62;46.44
67738;BME280;54534;43.612;1.572;2023-04-20T11:19:42;98320.31;;;18.61;46.59
67738;BME280;54534;43.612;1.572;2023-04-20T11:22:07;98312.34;;;18.61;46.31
67738;BME280;54534;43.612;1.572;2023-04-20T11:24:33;98314.03;;;18.62;46.58
67738;BME280;54534;43.612;1.572;2023-04-20T11:27:00;98305.06;;;18.63;46.12
67738;BME280;54534;43.612;1.572;2023-04-20T11:29:27;98305.06;;;18.63;46.43
67738;BME280;54534;43.612;1.572;2023-04-20T11:31:52;98305.88;;;18.63;46.26
67738;BME280;54534;43.612;1.572;2023-04-20T11:34:18;98308.53;;;18.63;46.38
67738;BME280;54534;43.612;1.572;2023-04-20T11:36:44;98311.09;;;18.65;46.43
67738;BME280;54534;43.612;1.572;2023-04-20T11:39:10;98303.09;;;18.65;46.24
67738;BME280;54534;43.612;1.572;2023-04-20T11:41:38;98303.78;;;18.67;46.53
67738;BME280;54534;43.612;1.572;2023-04-20T11:44:06;98286.84;;;18.68;46.85
67738;BME280;54534;43.612;1.572;2023-04-20T11:46:33;98289.34;;;18.70;46.26
67738;BME280;54534;43.612;1.572;2023-04-20T11:49:01;98291.16;;;18.69;46.26
67738;BME280;54534;43.612;1.572;2023-04-20T11:51:26;98284.00;;;18.70;46.25
67738;BME280;54534;43.612;1.572;2023-04-20T11:53:52;98284.00;;;18.70;46.55
67738;BME280;54534;43.612;1.572;2023-04-20T11:56:18;98281.19;;;18.71;46.26
67738;BME280;54534;43.612;1.572;2023-04-20T11:58:43;98284.69;;;18.72;46.17
67738;BME280;54534;43.612;1.572;2023-04-20T12:01:08;98272.22;;;18.72;46.42
67738;BME280;54534;43.612;1.572;2023-04-20T12:03:34;98274.03;;;18.72;46.07
67738;BME280;54534;43.612;1.572;2023-04-20T12:06:00;98273.06;;;18.73;46.06
67738;BME280;54534;43.612;1.572;2023-04-20T12:08:26;98273.91;;;18.73;45.85
67738;BME280;54534;43.612;1.572;2023-04-20T12:10:52;98276.56;;;18.73;46.12
67738;BME280;54534;43.612;1.572;2023-04-20T12:13:17;98271.09;;;18.75;46.18
67738;BME280;54534;43.612;1.572;2023-04-20T12:15:42;98274.59;;;18.75;46.11
67738;BME280;54534;43.612;1.572;2023-04-20T12:18:08;98276.28;;;18.76;46.05
67738;BME280;54534;43.612;1.572;2023-04-20T12:20:33;98267.44;;;18.76;45.74
67738;BME280;54534;43.612;1.572;2023-04-20T12:22:59;98265.47;;;18.78;46.07
67738;BME280;54534;43.612;1.572;2023-04-20T12:25:26;98264.63;;;18.77;45.66
67738;BME280;54534;43.612;1.572;2023-04-20T12:27:52;98264.63;;;18.77;46.04
67738;BME280;54534;43.612;1.572;2023-04-20T12:30:17;98270.63;;;18.79;45.93
67738;BME280;54534;43.612;1.572;2023-04-20T12:32:43;98268.97;;;18.78;45.69
67738;BME280;54534;43.612;1.572;2023-04-20T12:35:08;98275.00;;;18.81;45.68
67738;BME280;54534;43.612;1.572;2023-04-20T12:37:34;98270.50;;;18.81;45.72
67738;BME280;54534;43.612;1.572;2023-04-20T12:39:59;98276.69;;;18.82;45.58
67738;BME280;54534;43.612;1.572;2023-04-20T12:42:25;98260.69;;;18.82;45.73
67738;BME280;54534;43.612;1.572;2023-04-20T12:44:53;98271.34;;;18.82;45.91
67738;BME280;54534;43.612;1.572;2023-04-20T12:47:18;98274.81;;;18.82;45.49
67738;BME280;54534;43.612;1.572;2023-04-20T12:49:44;98274.81;;;18.82;45.13
67738;BME280;54534;43.612;1.572;2023-04-20T12:52:10;98277.38;;;18.84;44.89
67738;BME280;54534;43.612;1.572;2023-04-20T12:54:35;98272.03;;;18.84;45.00
67738;BME280;54534;43.612;1.572;2023-04-20T12:57:01;98268.53;;;18.83;44.78
67738;BME280;54534;43.612;1.572;2023-04-20T12:59:26;98263.19;;;18.83;44.33
67738;BME280;54534;43.612;1.572;2023-04-20T13:01:52;98280.88;;;18.84;44.03
67738;BME280;54534;43.612;1.572;2023-04-20T13:04:17;98265.72;;;18.85;44.16